Time;durP1;ratioP1;P1;durP2;ratioP2;P2;SDS_P1;SDS_P2;PMS_P1;PMS_P2;Temp;Humidity;BMP_temperature;BMP_pressure;BME280_temperature;BME280_humidity;BME280_pressure;Samples;Min_cycle;Max_cycle;Signal;HPM_P1;HPM_P2
2022/11/30 05:09:16;;;;;;;93.55;34.67;;;6.90;99.90;;;;;;6128621;23;19916;-87
2022/11/30 05:31:41;;;;;;;82.18;31.67;;;6.10;99.90;;;;;;5830529;24;20040;-88
2022/11/30 05:39:48;;;;;;;;;;;;;;;;;;;;;
2022/11/30 05:51:14;;;;;;;;;;;;;;;;;;;;;
2022/11/30 05:59:17;;;;;;;79.22;33.00;;;5.90;99.90;;;;;;6146508;23;20186;-87
2022/11/30 06:06:54;;;;;;;;;;;;;;;;;;;;;
2022/11/30 06:21:34;;;;;;;65.47;26.98;;;5.80;99.90;;;;;;6053844;23;20482;-87
2022/11/30 07:44:41;;;;;;;30.50;18.30;;;5.50;99.90;;;;;;6086995;23;20033;-95
2022/11/30 07:52:09;;;;;;;;;;;;;;;;;;;;;
2022/11/30 07:58:50;;;;;;;27.65;17.67;;;6.40;99.90;;;;;;6030506;23;20022;-88
2022/11/30 08:09:50;;;;;;;;;;;;;;;;;;;;;
2022/11/30 08:17:19;;;;;;;;;;;;;;;;;;;;;
2022/11/30 08:21:04;;;;;;;;;;;;;;;;;;;;;
2022/11/30 09:30:28;;;;;;;;;;;;;;;;;;;;;
2022/11/30 09:33:52;;;;;;;;;;;;;;;;;;;;;
2022/11/30 09:44:05;;;;;;;48.20;25.75;;;6.30;99.90;;;;;;6241854;22;20051;-86
2022/11/30 09:59:18;;;;;;;;;;;;;;;;;;;;;
2022/11/30 10:02:27;;;;;;;47.15;26.83;;;6.40;99.90;;;;;;6240916;22;20020;-85
2022/11/30 10:04:52;;;;;;;;;;;6.90;99.90;;;;;;6217708;22;20073;-84
2022/11/30 10:07:52;;;;;;;50.05;27.33;;;6.30;99.90;;;;;;6216300;22;19923;-84
2022/11/30 10:10:39;;;;;;;49.17;27.80;;;6.60;99.90;;;;;;6217433;22;20116;-85
2022/11/30 10:13:13;;;;;;;47.78;28.23;;;6.50;99.90;;;;;;6216948;22;20068;-85
2022/11/30 10:15:56;;;;;;;45.65;26.98;;;6.50;99.90;;;;;;6217618;22;20027;-85
2022/11/30 10:18:32;;;;;;;45.40;27.35;;;6.50;99.90;;;;;;6215399;22;20019;-84
2022/11/30 10:21:02;;;;;;;48.78;27.92;;;6.50;99.90;;;;;;6218116;22;20073;-84
2022/11/30 10:23:57;;;;;;;47.55;26.40;;;6.60;99.90;;;;;;6217084;22;20027;-85
2022/11/30 10:26:45;;;;;;;42.35;25.63;;;6.50;99.90;;;;;;6241857;22;20406;-84
2022/11/30 10:29:17;;;;;;;45.58;25.80;;;6.60;99.90;;;;;;6212614;23;20039;-85
2022/11/30 10:31:50;;;;;;;40.67;25.25;;;6.60;99.90;;;;;;6211154;23;20465;-84
2022/11/30 10:34:24;;;;;;;40.25;24.35;;;6.70;99.90;;;;;;6208791;23;20024;-84
2022/11/30 10:37:00;;;;;;;37.47;24.10;;;6.60;99.90;;;;;;6212276;23;20476;-84
2022/11/30 10:39:35;;;;;;;40.08;24.45;;;7.20;99.90;;;;;;6211427;23;20020;-84
2022/11/30 10:42:12;;;;;;;39.88;23.77;;;6.50;99.90;;;;;;6212892;23;20020;-85
2022/11/30 10:44:50;;;;;;;39.92;23.70;;;6.50;99.90;;;;;;6212388;23;20016;-85
2022/11/30 10:47:21;;;;;;;33.17;21.10;;;6.60;99.90;;;;;;6210178;23;20039;-84
2022/11/30 10:49:49;;;;;;;34.33;22.25;;;6.90;99.90;;;;;;6213055;23;20024;-84
2022/11/30 10:52:22;;;;;;;38.50;24.33;;;6.60;99.90;;;;;;6211371;23;20016;-84
2022/11/30 10:54:58;;;;;;;;;;;6.60;99.90;;;;;;6187185;23;20472;-85
2022/11/30 10:58:12;;;;;;;38.95;24.35;;;6.90;99.90;;;;;;6237179;23;19919;-85
2022/11/30 11:01:04;;;;;;;;;;;;;;;;;;;;;
2022/11/30 11:03:52;;;;;;;38.03;23.73;;;6.80;99.90;;;;;;6211917;23;20030;-84
2022/11/30 11:06:23;;;;;;;40.25;23.98;;;6.90;99.90;;;;;;6187838;23;20016;-86
2022/11/30 11:08:54;;;;;;;37.17;23.33;;;6.90;99.90;;;;;;6211764;23;20382;-85
2022/11/30 11:11:31;;;;;;;38.75;23.45;;;7.10;99.90;;;;;;6204011;23;20020;-82
2022/11/30 11:14:18;;;;;;;35.60;23.40;;;7.00;99.90;;;;;;6211497;23;20020;-84
2022/11/30 11:16:53;;;;;;;35.70;23.40;;;7.00;99.90;;;;;;6212643;23;20058;-83
2022/11/30 11:19:24;;;;;;;35.47;22.77;;;7.80;99.90;;;;;;6211379;23;20031;-83
2022/11/30 11:21:51;;;;;;;37.17;24.38;;;7.40;99.90;;;;;;6212584;23;20111;-82
2022/11/30 11:24:18;;;;;;;36.13;23.00;;;7.00;99.90;;;;;;6211874;23;20356;-83
2022/11/30 11:26:50;;;;;;;35.72;23.88;;;7.80;99.90;;;;;;6212603;23;20021;-81
2022/11/30 11:29:30;;;;;;;34.38;23.75;;;7.00;99.90;;;;;;6211437;23;20166;-82
2022/11/30 11:32:17;;;;;;;36.72;24.40;;;7.70;99.90;;;;;;6212013;23;20447;-81
2022/11/30 11:34:47;;;;;;;34.47;24.10;;;7.00;99.90;;;;;;6187425;23;20479;-85
2022/11/30 11:37:29;;;;;;;37.25;24.67;;;7.60;99.90;;;;;;6239029;23;20058;-84
2022/11/30 11:39:59;;;;;;;36.88;25.52;;;7.10;99.90;;;;;;6186900;23;20440;-84
2022/11/30 11:42:46;;;;;;;33.80;24.27;;;6.80;99.90;;;;;;6237517;23;20020;-84
2022/11/30 11:45:21;;;;;;;41.38;26.92;;;7.40;99.90;;;;;;6211895;23;20012;-84
2022/11/30 11:48:02;;;;;;;39.78;25.92;;;6.70;99.90;;;;;;6186714;23;20020;-83
2022/11/30 11:51:01;;;;;;;45.88;26.77;;;6.80;99.90;;;;;;6187829;23;20044;-85
2022/11/30 11:53:49;;;;;;;40.85;27.27;;;6.70;99.90;;;;;;6189255;23;20024;-84
2022/11/30 11:56:26;;;;;;;47.83;27.73;;;6.70;99.90;;;;;;6212558;23;20526;-84
2022/11/30 11:59:00;;;;;;;45.42;28.67;;;6.70;99.90;;;;;;6213961;23;20099;-84
2022/11/30 12:01:49;;;;;;;44.90;27.98;;;6.60;99.90;;;;;;6213914;23;20078;-84
2022/11/30 12:04:22;;;;;;;48.17;28.38;;;6.60;99.90;;;;;;6212282;23;20016;-84
2022/11/30 12:07:01;;;;;;;46.00;29.63;;;6.70;99.90;;;;;;6214280;23;20095;-84
2022/11/30 12:09:36;;;;;;;47.35;27.95;;;6.60;99.90;;;;;;6189231;23;20087;-85
2022/11/30 12:12:30;;;;;;;42.28;26.50;;;6.70;99.90;;;;;;6188043;23;20032;-87
2022/11/30 12:14:56;;;;;;;;;;;6.90;99.90;;;;;;6189753;23;20440;-85
2022/11/30 12:17:47;;;;;;;42.17;26.30;;;6.60;99.90;;;;;;6229289;22;19919;-84
2022/11/30 12:31:47;;;;;;;51.67;29.83;;;6.50;99.90;;;;;;6128092;23;20024;-86
2022/11/30 12:42:11;;;;;;;51.38;31.23;;;6.40;99.90;;;;;;6139177;23;20081;-85
2022/11/30 12:45:15;;;;;;;55.22;32.55;;;6.50;99.90;;;;;;6211013;23;20020;-85
2022/11/30 12:48:33;;;;;;;57.90;32.75;;;6.40;99.90;;;;;;6219611;22;20598;-85
2022/11/30 12:51:24;;;;;;;;;;;;;;;;;;;;;
2022/11/30 12:54:13;;;;;;;;;;;6.50;99.90;;;;;;6238500;23;20035;-84
2022/11/30 12:56:44;;;;;;;59.60;33.63;;;6.40;99.90;;;;;;6236439;23;19915;-83
2022/11/30 12:59:26;;;;;;;60.33;33.22;;;7.30;99.90;;;;;;6236403;23;20034;-85
2022/11/30 13:02:20;;;;;;;62.25;35.00;;;7.20;99.90;;;;;;6211285;23;20452;-86
2022/11/30 13:04:58;;;;;;;59.92;34.22;;;6.90;99.90;;;;;;6262118;22;20023;-85
2022/11/30 13:07:31;;;;;;;68.07;34.55;;;6.40;99.90;;;;;;6236511;23;20024;-83
2022/11/30 13:10:05;;;;;;;68.55;35.95;;;6.90;99.90;;;;;;6234957;23;20495;-83
2022/11/30 13:12:40;;;;;;;65.88;35.45;;;7.20;99.90;;;;;;6235267;23;20016;-83
2022/11/30 13:15:17;;;;;;;68.93;37.40;;;6.20;99.90;;;;;;6235422;23;20099;-85
2022/11/30 13:17:48;;;;;;;65.45;36.83;;;6.00;99.90;;;;;;6234722;23;20051;-85
2022/11/30 13:20:34;;;;;;;65.10;36.75;;;6.40;99.90;;;;;;6236447;23;20047;-85
2022/11/30 13:23:13;;;;;;;70.88;37.22;;;6.40;99.90;;;;;;6235769;23;20012;-83
2022/11/30 13:25:47;;;;;;;68.93;36.58;;;6.40;99.90;;;;;;6237209;23;20520;-84
2022/11/30 13:28:29;;;;;;;64.40;36.35;;;6.50;99.90;;;;;;6235383;23;20150;-85
2022/11/30 13:31:06;;;;;;;70.35;37.50;;;6.40;99.90;;;;;;6236289;23;20095;-86
2022/11/30 13:33:34;;;;;;;62.97;35.22;;;6.40;99.90;;;;;;6234208;23;20020;-85
2022/11/30 13:36:06;;;;;;;63.60;35.58;;;6.40;99.90;;;;;;6235490;23;20024;-84
2022/11/30 13:38:32;;;;;;;65.53;35.72;;;6.40;99.90;;;;;;6261142;22;20028;-84
2022/11/30 13:43:50;;;;;;;72.38;38.47;;;6.40;99.90;;;;;;6237399;23;20154;-84
2022/11/30 13:46:48;;;;;;;64.07;35.30;;;7.30;99.90;;;;;;6238804;23;20024;-85
2022/11/30 13:50:12;;;;;;;65.32;34.42;;;6.40;99.90;;;;;;6233171;23;20020;-85
2022/11/30 13:53:19;;;;;;;62.20;34.20;;;6.30;99.90;;;;;;6221519;23;20088;-85
2022/11/30 13:55:50;;;;;;;62.75;34.03;;;6.40;99.90;;;;;;6196318;23;20078;-84
2022/11/30 13:58:32;;;;;;;69.13;36.42;;;6.40;99.90;;;;;;6213801;23;20039;-86
2022/11/30 14:01:24;;;;;;;67.28;35.88;;;6.40;99.90;;;;;;6238047;23;20017;-86
2022/11/30 14:04:28;;;;;;;66.65;35.92;;;6.30;99.90;;;;;;6208733;23;20050;-84
2022/11/30 14:06:55;;;;;;;68.47;36.53;;;6.30;99.90;;;;;;6238464;23;20083;-84
2022/11/30 14:09:44;;;;;;;72.75;37.22;;;6.30;99.90;;;;;;6237959;23;20062;-83
2022/11/30 14:12:29;;;;;;;63.75;36.00;;;6.40;99.90;;;;;;6211394;23;20372;-85
2022/11/30 14:15:20;;;;;;;64.53;36.67;;;6.30;99.90;;;;;;6238103;23;20024;-85
2022/11/30 14:17:50;;;;;;;;;;;6.50;99.90;;;;;;6237305;23;20031;-85
2022/11/30 14:20:18;;;;;;;64.22;35.15;;;6.30;99.90;;;;;;6212301;23;20324;-84
2022/11/30 14:23:29;;;;;;;64.65;35.22;;;6.40;99.90;;;;;;6237257;23;20074;-83
2022/11/30 14:25:46;;;;;;;70.97;36.90;;;6.30;99.90;;;;;;6223321;23;20031;-83
2022/11/30 14:28:16;;;;;;;;;;;6.20;99.90;;;;;;6238066;23;20027;-83
2022/11/30 14:31:01;;;;;;;71.40;36.53;;;6.30;99.90;;;;;;6213394;23;19923;-84
2022/11/30 14:33:41;;;;;;;63.70;36.72;;;7.20;99.90;;;;;;6264140;22;20383;-85
2022/11/30 14:36:52;;;;;;;63.95;35.50;;;6.20;99.90;;;;;;6263394;22;20024;-86
2022/11/30 14:39:52;;;;;;;60.95;33.80;;;6.40;99.90;;;;;;6237387;23;20062;-84
2022/11/30 14:47:20;;;;;;;;;;;;;;;;;;;;;
2022/11/30 15:12:44;;;;;;;;;;;;;;;;;;;;;
2022/11/30 15:20:09;;;;;;;70.70;36.90;;;6.00;99.90;;;;;;5934122;23;20039;-86
2022/11/30 15:23:30;;;;;;;70.68;37.05;;;6.20;99.90;;;;;;5993725;23;20128;-84
2022/11/30 15:30:36;;;;;;;77.95;39.38;;;6.00;99.90;;;;;;5983263;23;20079;-86
2022/11/30 15:45:40;;;;;;;81.65;40.95;;;5.70;99.90;;;;;;5840353;24;20056;-88
2022/11/30 15:54:43;;;;;;;77.38;40.25;;;6.00;99.90;;;;;;6227852;22;20028;-86
2022/11/30 15:57:19;;;;;;;89.00;42.45;;;5.90;99.90;;;;;;6237090;22;20043;-86
2022/11/30 16:00:24;;;;;;;87.20;42.33;;;6.60;99.90;;;;;;6263735;22;20020;-86
2022/11/30 16:10:55;;;;;;;;;;;;;;;;;;;;;
2022/11/30 17:14:51;;;;;;;84.28;41.20;;;5.80;99.90;;;;;;6182238;23;20104;-87
2022/11/30 17:17:20;;;;;;;89.25;40.15;;;6.30;99.90;;;;;;6197636;23;20020;-85
2022/11/30 17:24:06;;;;;;;79.07;39.17;;;5.70;99.90;;;;;;6136762;23;20031;-86
2022/11/30 17:30:53;;;;;;;79.07;41.00;;;6.50;99.90;;;;;;6149478;23;20023;-96
2022/11/30 17:33:58;;;;;;;79.22;40.47;;;5.90;99.90;;;;;;6134528;23;20083;-89
2022/11/30 17:36:29;;;;;;;86.18;40.58;;;6.10;99.90;;;;;;6209016;23;20028;-88
2022/11/30 17:39:37;;;;;;;;;;;;;;;;;;;;;
2022/11/30 17:46:47;;;;;;;;;;;;;;;;;;;;;
2022/11/30 17:49:43;;;;;;;;;;;;;;;;;;;;;
2022/11/30 17:52:24;;;;;;;85.85;39.78;;;5.90;99.90;;;;;;6211391;23;20020;-87
2022/11/30 18:10:11;;;;;;;82.60;39.05;;;5.90;99.90;;;;;;6102021;23;20035;-90
2022/11/30 18:49:57;;;;;;;83.13;41.35;;;5.10;99.90;;;;;;6264696;22;20365;-90
2022/11/30 18:52:53;;;;;;;86.28;43.10;;;5.50;99.90;;;;;;6216382;22;20062;-90
2022/11/30 18:55:52;;;;;;;86.88;42.67;;;5.80;99.90;;;;;;6177963;22;20025;-90
2022/11/30 19:05:34;;;;;;;96.25;44.47;;;5.80;99.90;;;;;;6269580;22;20035;-90
2022/11/30 19:09:49;;;;;;;;;;;;;;;;;;;;;
2022/11/30 19:23:07;;;;;;;92.97;44.07;;;6.20;99.90;;;;;;6268508;22;20059;-89
2022/11/30 19:25:37;;;;;;;99.75;46.25;;;5.80;99.90;;;;;;6215963;22;20254;-89
2022/11/30 19:28:23;;;;;;;98.80;46.42;;;5.70;99.90;;;;;;6235736;22;20015;-89
2022/11/30 19:30:49;;;;;;;95.15;45.75;;;5.80;99.90;;;;;;6241619;22;20023;-88
2022/11/30 19:33:15;;;;;;;95.30;47.00;;;6.10;99.90;;;;;;6239379;22;20447;-89
2022/11/30 19:39:56;;;;;;;96.35;45.40;;;5.70;99.90;;;;;;6135324;22;20030;-89
2022/11/30 19:42:30;;;;;;;98.22;45.42;;;5.80;99.90;;;;;;6203204;22;20504;-90
2022/11/30 19:48:08;;;;;;;98.80;44.97;;;6.10;99.90;;;;;;6240065;22;20027;-90
2022/11/30 19:50:35;;;;;;;91.28;44.95;;;6.10;99.90;;;;;;6241865;22;20026;-90
2022/11/30 19:53:04;;;;;;;91.68;44.85;;;5.80;99.90;;;;;;6215597;22;20026;-89
2022/11/30 20:04:17;;;;;;;;;;;;;;;;;;;;;
2022/11/30 20:19:52;;;;;;;97.70;45.22;;;5.80;99.90;;;;;;6268176;22;20015;-91
2022/11/30 20:22:31;;;;;;;94.47;45.70;;;5.70;99.90;;;;;;6238492;22;20036;-88
2022/11/30 20:25:18;;;;;;;104.70;46.47;;;5.70;99.90;;;;;;6238882;22;20022;-90
2022/11/30 20:27:48;;;;;;;101.75;46.35;;;5.70;99.90;;;;;;6217691;22;20034;-90
2022/11/30 20:30:14;;;;;;;114.95;48.38;;;5.80;99.90;;;;;;6216863;22;20109;-90
2022/11/30 20:32:41;;;;;;;115.13;47.50;;;5.70;99.90;;;;;;6217038;22;20020;-90
2022/11/30 20:35:08;;;;;;;100.47;45.25;;;5.80;99.90;;;;;;6214097;22;20030;-90
2022/11/30 20:37:35;;;;;;;100.97;45.20;;;5.70;99.90;;;;;;6216538;22;20032;-90
2022/11/30 20:40:01;;;;;;;104.95;46.38;;;5.60;99.90;;;;;;6217843;22;20081;-89
2022/11/30 20:42:26;;;;;;;102.53;45.45;;;5.80;99.90;;;;;;6216748;22;20382;-88
2022/11/30 20:44:52;;;;;;;108.68;47.65;;;6.60;99.90;;;;;;6216704;22;20020;-90
2022/11/30 20:47:20;;;;;;;116.28;49.00;;;5.80;99.90;;;;;;6216261;22;20016;-90
2022/11/30 20:49:48;;;;;;;102.63;46.40;;;5.80;99.90;;;;;;6242223;22;20015;-88
2022/11/30 20:52:14;;;;;;;103.53;45.95;;;6.30;99.90;;;;;;6214948;22;20089;-88
2022/11/30 20:55:08;;;;;;;105.93;45.55;;;5.70;99.90;;;;;;6241006;22;20016;-89
2022/11/30 20:57:34;;;;;;;112.18;46.65;;;5.80;99.90;;;;;;6240245;22;20477;-87
2022/11/30 21:00:00;;;;;;;111.82;45.35;;;5.80;99.90;;;;;;6214905;22;20007;-88
2022/11/30 21:02:25;;;;;;;111.95;47.33;;;6.30;99.90;;;;;;6215032;22;20030;-87
2022/11/30 21:04:51;;;;;;;113.05;48.28;;;5.70;99.90;;;;;;6240631;22;20107;-87
2022/11/30 21:07:17;;;;;;;102.32;45.75;;;5.80;99.90;;;;;;6215004;22;20059;-87
2022/11/30 21:09:43;;;;;;;102.50;46.40;;;5.90;99.90;;;;;;6240487;22;20084;-87
2022/11/30 21:12:08;;;;;;;105.15;47.03;;;5.90;99.90;;;;;;6239340;22;20051;-88
2022/11/30 21:14:34;;;;;;;110.00;47.28;;;6.40;99.90;;;;;;6214745;22;20024;-88
2022/11/30 21:17:00;;;;;;;109.65;47.30;;;6.10;99.90;;;;;;6214564;22;20400;-87
2022/11/30 21:19:25;;;;;;;114.28;46.22;;;5.70;99.90;;;;;;6237099;22;20016;-87
2022/11/30 21:22:18;;;;;;;;;;;;;;;;;;;;;
2022/11/30 21:25:04;;;;;;;107.80;47.75;;;5.50;99.90;;;;;;6242426;22;20019;-89
2022/11/30 21:27:33;;;;;;;107.97;45.72;;;5.70;99.90;;;;;;6240652;22;20094;-93
2022/11/30 21:29:59;;;;;;;108.63;46.10;;;6.60;99.90;;;;;;6217067;22;20015;-89
2022/11/30 21:32:25;;;;;;;112.85;46.22;;;5.80;99.90;;;;;;6215181;22;20348;-89
2022/11/30 21:34:50;;;;;;;107.10;46.03;;;5.70;99.90;;;;;;6216323;22;20020;-90
2022/11/30 21:37:17;;;;;;;99.57;43.50;;;5.80;99.90;;;;;;6216583;22;20020;-91
2022/11/30 21:39:42;;;;;;;108.47;46.55;;;6.10;99.90;;;;;;6215884;22;20094;-91
2022/11/30 21:42:08;;;;;;;111.07;47.88;;;6.20;99.90;;;;;;6216733;22;20055;-91
2022/11/30 21:44:34;;;;;;;116.97;47.92;;;5.80;99.90;;;;;;6217019;22;20024;-91
2022/11/30 21:46:59;;;;;;;102.57;46.25;;;5.70;99.90;;;;;;6215424;22;20156;-90
2022/11/30 21:49:25;;;;;;;114.35;48.15;;;5.90;99.90;;;;;;6217200;22;20095;-92
2022/11/30 21:51:52;;;;;;;101.93;45.75;;;6.00;99.90;;;;;;6220055;22;20055;-94
2022/11/30 21:54:18;;;;;;;110.57;46.42;;;5.80;99.90;;;;;;6218101;22;20030;-90
2022/11/30 21:56:44;;;;;;;102.75;45.35;;;6.00;99.90;;;;;;6218729;22;20012;-92
2022/11/30 21:59:12;;;;;;;113.82;47.97;;;5.80;99.90;;;;;;6219964;22;20094;-91
2022/11/30 22:01:40;;;;;;;113.18;47.38;;;6.30;99.90;;;;;;6217940;22;20016;-92
2022/11/30 22:04:08;;;;;;;112.97;47.85;;;6.20;99.90;;;;;;6219262;22;20076;-91
2022/11/30 22:06:36;;;;;;;111.13;48.30;;;5.70;99.90;;;;;;6219645;22;20398;-90
2022/11/30 22:09:06;;;;;;;108.22;45.22;;;5.70;99.90;;;;;;6218800;22;20119;-91
2022/11/30 22:11:36;;;;;;;111.78;47.90;;;5.80;99.90;;;;;;6219326;22;20339;-91
2022/11/30 22:14:02;;;;;;;111.55;45.47;;;5.80;99.90;;;;;;6219759;22;20023;-91
2022/11/30 22:16:28;;;;;;;111.85;46.13;;;5.90;99.90;;;;;;6213484;23;20027;-90
2022/11/30 22:18:55;;;;;;;110.75;47.90;;;6.50;99.90;;;;;;6213673;23;20024;-91
2022/11/30 22:21:24;;;;;;;114.07;46.95;;;6.60;99.90;;;;;;6214229;23;20066;-91
2022/11/30 22:23:55;;;;;;;113.22;47.33;;;6.40;99.90;;;;;;6213317;23;20016;-91
2022/11/30 22:26:24;;;;;;;111.82;49.17;;;6.30;99.90;;;;;;6214311;23;20012;-90
2022/11/30 22:28:53;;;;;;;111.70;47.58;;;5.70;99.90;;;;;;6214638;23;20008;-90
2022/11/30 22:31:21;;;;;;;110.00;46.65;;;6.40;99.90;;;;;;6214304;23;20009;-89
2022/11/30 22:33:47;;;;;;;109.03;47.22;;;5.70;99.90;;;;;;6213384;23;20016;-91
2022/11/30 22:36:15;;;;;;;116.55;48.45;;;5.60;99.90;;;;;;6213465;23;20016;-91
2022/11/30 22:38:41;;;;;;;119.45;48.83;;;6.10;99.90;;;;;;6213372;23;20008;-90
2022/11/30 22:41:11;;;;;;;112.65;46.25;;;5.70;99.90;;;;;;6214069;23;20107;-90
2022/11/30 22:43:36;;;;;;;115.45;47.72;;;5.50;99.90;;;;;;6213110;23;20019;-91
2022/11/30 22:46:05;;;;;;;126.65;48.20;;;6.40;99.90;;;;;;6214050;23;20081;-90
2022/11/30 22:48:32;;;;;;;119.22;48.92;;;5.60;99.90;;;;;;6212947;23;20022;-90
2022/11/30 22:51:03;;;;;;;127.95;50.70;;;6.30;99.90;;;;;;6213576;23;20024;-90
2022/11/30 22:53:28;;;;;;;119.18;48.38;;;6.50;99.90;;;;;;6213336;23;20024;-90
2022/11/30 22:56:01;;;;;;;113.50;48.92;;;6.60;99.90;;;;;;6214348;23;20061;-90
2022/11/30 22:58:27;;;;;;;119.53;52.00;;;5.50;99.90;;;;;;6213051;23;20088;-91
2022/11/30 23:00:53;;;;;;;119.45;49.78;;;5.90;99.90;;;;;;6214473;23;20074;-90
2022/11/30 23:03:18;;;;;;;109.50;49.55;;;5.50;99.90;;;;;;6212746;23;20020;-90
2022/11/30 23:05:44;;;;;;;118.53;50.30;;;5.50;99.90;;;;;;6213372;23;20016;-90
2022/11/30 23:08:10;;;;;;;113.43;47.83;;;6.10;99.90;;;;;;6213817;23;20016;-91
2022/11/30 23:10:35;;;;;;;112.72;49.00;;;5.50;99.90;;;;;;6239075;23;20437;-91
2022/11/30 23:13:01;;;;;;;111.97;49.10;;;5.60;99.90;;;;;;6238523;23;20157;-91
2022/11/30 23:15:27;;;;;;;121.22;51.55;;;6.60;99.90;;;;;;6214216;23;20043;-91
2022/11/30 23:17:52;;;;;;;117.78;50.78;;;5.50;99.90;;;;;;6213067;23;20017;-91
2022/11/30 23:20:18;;;;;;;113.20;49.88;;;6.00;99.90;;;;;;6213296;23;20020;-91
2022/11/30 23:22:44;;;;;;;118.50;49.72;;;5.50;99.90;;;;;;6213707;23;20024;-91
2022/11/30 23:25:09;;;;;;;116.03;48.20;;;6.00;99.90;;;;;;6214421;23;20044;-91
2022/11/30 23:27:35;;;;;;;122.25;51.58;;;5.90;99.90;;;;;;6214732;23;20395;-91
2022/11/30 23:30:01;;;;;;;120.85;50.00;;;6.10;99.90;;;;;;6214530;23;20012;-91
2022/11/30 23:32:27;;;;;;;119.20;51.13;;;6.10;99.90;;;;;;6212948;23;20484;-91
2022/11/30 23:34:52;;;;;;;114.13;49.97;;;6.00;99.90;;;;;;6214180;23;20040;-91
2022/11/30 23:37:18;;;;;;;121.88;49.60;;;5.80;99.90;;;;;;6213692;23;20096;-91
2022/11/30 23:39:44;;;;;;;118.32;50.75;;;5.40;99.90;;;;;;6213562;23;20024;-91
2022/11/30 23:42:09;;;;;;;116.78;50.65;;;5.60;99.90;;;;;;6213665;23;20016;-91
2022/11/30 23:44:35;;;;;;;109.80;49.42;;;6.30;99.90;;;;;;6215388;23;20024;-91
2022/11/30 23:47:01;;;;;;;123.38;51.17;;;6.40;99.90;;;;;;6214090;23;20044;-91
2022/11/30 23:49:26;;;;;;;125.47;51.90;;;5.50;99.90;;;;;;6216327;23;20020;-91
2022/11/30 23:51:52;;;;;;;116.28;50.35;;;6.00;99.90;;;;;;6216246;23;20429;-91
2022/11/30 23:54:18;;;;;;;121.80;49.95;;;6.00;99.90;;;;;;6214288;23;20448;-91
2022/11/30 23:56:43;;;;;;;112.88;51.28;;;5.50;99.90;;;;;;6216062;23;20012;-91
2022/11/30 23:59:09;;;;;;;127.35;51.83;;;5.60;99.90;;;;;;6215373;23;20026;-91
